createdAt,value
2022-12-28T00:00:16.481Z,101726.10
2022-12-28T00:02:46.116Z,101708.15
2022-12-28T00:05:17.775Z,101703.98
2022-12-28T00:07:47.812Z,101696.81
2022-12-28T00:10:17.613Z,101682.27
2022-12-28T00:12:49.126Z,101678.64
2022-12-28T00:15:18.781Z,101677.81
2022-12-28T00:17:48.531Z,101672.27
2022-12-28T00:20:18.048Z,101658.92
2022-12-28T00:22:47.757Z,101651.19
2022-12-28T00:25:17.374Z,101646.52
2022-12-28T00:27:47.150Z,101634.10
2022-12-28T00:30:16.679Z,101634.10
2022-12-28T00:32:46.108Z,101618.52
2022-12-28T00:35:15.978Z,101615.69
2022-12-28T00:37:45.795Z,101601.61
2022-12-28T00:40:22.031Z,101601.61
2022-12-28T00:42:46.990Z,101604.28
2022-12-28T00:45:16.727Z,101595.47
2022-12-28T00:47:46.587Z,101602.33
2022-12-28T00:50:16.078Z,101596.15
2022-12-28T00:52:45.821Z,101585.36
2022-12-28T00:55:15.762Z,101583.61
2022-12-28T00:57:45.880Z,101580.94
2022-12-28T01:00:16.464Z,101583.19
2022-12-28T01:02:46.345Z,101575.86
2022-12-28T01:05:15.761Z,101585.98
2022-12-28T01:07:45.626Z,101571.53
2022-12-28T01:10:15.232Z,101574.51
2022-12-28T01:12:45.061Z,101579.58
2022-12-28T01:15:15.734Z,101562.17
2022-12-28T01:17:45.471Z,101556.63
2022-12-28T01:20:15.058Z,101559.84
2022-12-28T01:22:44.772Z,101559.97
2022-12-28T01:25:15.874Z,101547.47
2022-12-28T01:27:45.622Z,101532.38
2022-12-28T01:30:15.951Z,101527.77
2022-12-28T01:32:45.839Z,101530.86
2022-12-28T01:35:15.641Z,101526.93
2022-12-28T01:37:45.766Z,101515.46
2022-12-28T01:40:16.376Z,101518.31
2022-12-28T01:42:46.168Z,101518.66
2022-12-28T01:45:18.853Z,101523.12
2022-12-28T01:47:51.718Z,101503.63
2022-12-28T01:50:24.197Z,101505.30
2022-12-28T01:52:59.965Z,101507.37
2022-12-28T01:55:32.318Z,101484.46
2022-12-28T01:58:05.098Z,101498.19
2022-12-28T02:00:36.470Z,101489.05
2022-12-28T02:03:12.499Z,101475.63
2022-12-28T02:05:45.497Z,101470.78
2022-12-28T02:08:21.116Z,101467.87
2022-12-28T02:10:52.830Z,101462.61
2022-12-28T02:13:24.599Z,101460.92
2022-12-28T02:15:54.347Z,101452.95
2022-12-28T02:18:28.302Z,101421.76
2022-12-28T02:21:13.067Z,101424.28
2022-12-28T02:23:51.769Z,101414.95
2022-12-28T02:26:50.849Z,101414.30
2022-12-28T02:29:23.593Z,101408.67
2022-12-28T02:31:59.690Z,101396.83
2022-12-28T02:34:35.167Z,101398.36
2022-12-28T02:37:10.173Z,101402.56
2022-12-28T02:39:43.251Z,101407.15
2022-12-28T02:42:13.812Z,101390.90
2022-12-28T02:45:00.876Z,101393.10
2022-12-28T02:47:48.539Z,101390.02
2022-12-28T02:50:19.479Z,101378.69
2022-12-28T02:52:54.947Z,101374.78
2022-12-28T02:56:03.278Z,101381.88
2022-12-28T02:58:44.743Z,101361.38
2022-12-28T03:01:21.080Z,101361.38
2022-12-28T03:04:03.473Z,101357.32
2022-12-28T03:07:02.792Z,101350.19
2022-12-28T03:09:44.121Z,101343.41
2022-12-28T03:12:19.534Z,101349.65
2022-12-28T03:14:54.426Z,101341.89
2022-12-28T03:17:43.944Z,101345.78
2022-12-28T03:20:38.243Z,101342.23
2022-12-28T03:23:27.894Z,101338.33
2022-12-28T03:26:18.874Z,101338.33
2022-12-28T03:29:07.843Z,101335.80
2022-12-28T03:31:39.668Z,101333.56
2022-12-28T03:34:11.773Z,101329.81
2022-12-28T03:36:57.573Z,101317.58
2022-12-28T03:39:53.112Z,101329.96
2022-12-28T03:42:46.859Z,101316.58
2022-12-28T03:45:46.688Z,101310.66
2022-12-28T03:48:04.593Z,101323.71
2022-12-28T03:50:41.475Z,101318.31
2022-12-28T03:53:11.799Z,101317.95
2022-12-28T03:55:43.254Z,101317.58
2022-12-28T03:58:13.414Z,101305.73
2022-12-28T04:00:43.955Z,101304.89
2022-12-28T04:03:14.005Z,101299.20
2022-12-28T04:05:44.796Z,101299.95
2022-12-28T04:08:14.756Z,101287.06
2022-12-28T04:10:44.597Z,101283.77
2022-12-28T04:13:14.589Z,101285.02
2022-12-28T04:16:01.993Z,101285.02
2022-12-28T04:18:34.269Z,101285.99
2022-12-28T04:21:04.085Z,101275.95
2022-12-28T04:23:34.254Z,101276.83
2022-12-28T04:26:20.538Z,101280.52
2022-12-28T04:28:52.074Z,101276.13
2022-12-28T04:31:35.326Z,101290.73
2022-12-28T04:34:08.187Z,101281.17
2022-12-28T04:36:42.922Z,101295.39
2022-12-28T04:39:16.875Z,101284.73
2022-12-28T04:41:46.702Z,101283.49
2022-12-28T04:44:16.204Z,101279.39
2022-12-28T04:46:45.992Z,101271.97
2022-12-28T04:49:15.790Z,101263.38
2022-12-28T04:51:45.506Z,101263.38
2022-12-28T04:54:15.523Z,101264.11
2022-12-28T04:56:45.569Z,101261.07
2022-12-28T04:59:15.680Z,101253.62
2022-12-28T05:01:45.579Z,101250.09
2022-12-28T05:04:15.199Z,101242.56
2022-12-28T05:06:45.002Z,101244.08
2022-12-28T05:09:14.845Z,101236.63
2022-12-28T05:11:44.569Z,101236.63
2022-12-28T05:14:14.736Z,101240.87
2022-12-28T05:16:45.328Z,101240.87
2022-12-28T05:19:15.345Z,101242.38
2022-12-28T05:21:47.496Z,101241.83
2022-12-28T05:24:17.103Z,101239.95
2022-12-28T05:26:46.999Z,101236.03
2022-12-28T05:29:16.740Z,101240.05
2022-12-28T05:31:47.141Z,101237.56
2022-12-28T05:34:16.876Z,101240.39
2022-12-28T05:36:46.687Z,101240.94
2022-12-28T05:39:16.460Z,101244.36
2022-12-28T05:41:46.520Z,101235.71
2022-12-28T05:44:16.206Z,101231.05
2022-12-28T05:46:46.143Z,101231.05
2022-12-28T05:49:15.920Z,101230.47
2022-12-28T05:51:45.654Z,101232.08
2022-12-28T05:54:15.178Z,101231.57
2022-12-28T05:56:44.906Z,101227.48
2022-12-28T05:59:14.622Z,101218.59
2022-12-28T06:01:45.613Z,101218.59
2022-12-28T06:04:20.261Z,101226.27
2022-12-28T06:06:50.726Z,101208.80
2022-12-28T06:09:21.035Z,101208.80
2022-12-28T06:11:51.751Z,101212.17
2022-12-28T06:14:21.572Z,101199.42
2022-12-28T06:16:51.629Z,101192.89
2022-12-28T06:19:21.149Z,101188.72
2022-12-28T06:21:50.877Z,101185.66
2022-12-28T06:24:20.690Z,101184.08
2022-12-28T06:26:51.300Z,101180.84
2022-12-28T06:29:21.053Z,101194.57
2022-12-28T06:31:51.387Z,101184.09
2022-12-28T06:34:21.124Z,101187.91
2022-12-28T06:36:52.701Z,101188.23
2022-12-28T06:39:22.425Z,101191.98
2022-12-28T06:41:52.149Z,101191.05
2022-12-28T06:44:21.878Z,101188.17
2022-12-28T06:46:51.911Z,101191.99
2022-12-28T06:49:21.664Z,101197.86
2022-12-28T06:51:51.419Z,101198.53
2022-12-28T06:54:20.923Z,101189.27
2022-12-28T06:56:50.681Z,101200.72
2022-12-28T06:59:20.167Z,101192.67
2022-12-28T07:01:50.074Z,101180.46
2022-12-28T07:04:19.904Z,101187.83
2022-12-28T07:06:49.660Z,101193.98
2022-12-28T07:09:19.733Z,101189.39
2022-12-28T07:11:51.348Z,101194.89
2022-12-28T07:14:21.031Z,101200.14
2022-12-28T07:16:50.798Z,101194.70
2022-12-28T07:19:20.550Z,101192.55
2022-12-28T07:21:51.204Z,101190.03
2022-12-28T07:24:20.888Z,101191.52
2022-12-28T07:26:50.662Z,101183.98
2022-12-28T07:29:20.177Z,101185.16
2022-12-28T07:31:50.221Z,101183.22
2022-12-28T07:34:20.007Z,101189.37
2022-12-28T07:36:50.224Z,101181.16
2022-12-28T07:39:20.036Z,101196.09
2022-12-28T07:41:49.797Z,101187.61
2022-12-28T07:44:20.899Z,101170.06
2022-12-28T07:46:50.679Z,101183.39
2022-12-28T07:49:20.415Z,101182.27
2022-12-28T07:51:49.847Z,101190.19
2022-12-28T07:54:19.586Z,101192.75
2022-12-28T07:56:49.705Z,101189.34
2022-12-28T07:59:19.166Z,101194.98
2022-12-28T08:01:53.341Z,101187.01
2022-12-28T08:04:22.827Z,101183.91
2022-12-28T08:06:52.555Z,101180.16
2022-12-28T08:09:22.726Z,101178.54
2022-12-28T08:11:52.451Z,101190.19
2022-12-28T08:14:21.918Z,101190.19
2022-12-28T08:16:51.740Z,101181.02
2022-12-28T08:19:21.481Z,101181.02
2022-12-28T08:21:51.271Z,101179.23
2022-12-28T08:24:21.231Z,101184.98
2022-12-28T08:26:51.380Z,101182.41
2022-12-28T08:29:23.250Z,101176.69
2022-12-28T08:31:53.012Z,101176.69
2022-12-28T08:34:24.917Z,101181.06
2022-12-28T08:36:56.582Z,101177.31
2022-12-28T08:39:26.594Z,101171.50
2022-12-28T08:41:57.246Z,101174.94
2022-12-28T08:44:27.058Z,101166.39
2022-12-28T08:46:58.107Z,101174.85
2022-12-28T08:49:27.997Z,101168.95
2022-12-28T08:51:57.805Z,101166.27
2022-12-28T08:54:27.551Z,101162.66
2022-12-28T08:56:56.970Z,101164.55
2022-12-28T08:59:26.769Z,101173.90
2022-12-28T09:01:56.837Z,101168.18
2022-12-28T09:04:26.494Z,101180.50
2022-12-28T09:06:56.308Z,101163.70
2022-12-28T09:09:26.065Z,101167.34
2022-12-28T09:11:55.781Z,101168.43
2022-12-28T09:14:25.592Z,101174.06
2022-12-28T09:16:55.759Z,101169.02
2022-12-28T09:19:25.761Z,101179.19
2022-12-28T09:21:55.545Z,101178.63
2022-12-28T09:24:25.368Z,101182.70
2022-12-28T09:26:55.425Z,101178.54
2022-12-28T09:29:25.187Z,101172.15
2022-12-28T09:31:54.651Z,101180.74
2022-12-28T09:34:39.898Z,101177.95
2022-12-28T09:36:55.858Z,101169.50
2022-12-28T09:39:25.446Z,101175.52
2022-12-28T09:41:58.291Z,101173.19
2022-12-28T09:44:48.943Z,101170.69
2022-12-28T09:47:36.893Z,101159.94
2022-12-28T09:50:17.161Z,101164.17
2022-12-28T09:53:09.347Z,101164.02
2022-12-28T09:55:42.348Z,101171.84
2022-12-28T09:58:16.077Z,101167.83
2022-12-28T10:00:50.891Z,101162.75
2022-12-28T10:03:39.977Z,101167.77
2022-12-28T10:06:16.606Z,101161.02
2022-12-28T10:08:49.384Z,101167.44
2022-12-28T10:11:23.501Z,101162.05
2022-12-28T10:13:59.225Z,101152.48
2022-12-28T10:16:34.842Z,101158.05
2022-12-28T10:19:07.003Z,101152.62
2022-12-28T10:21:37.177Z,101154.66
2022-12-28T10:26:43.364Z,101152.94
2022-12-28T10:29:16.136Z,101153.69
2022-12-28T10:31:47.471Z,101149.05
2022-12-28T10:34:22.811Z,101142.58
2022-12-28T10:36:53.579Z,101146.81
2022-12-28T10:39:31.941Z,101148.44
2022-12-28T10:42:02.958Z,101134.77
2022-12-28T10:44:39.734Z,101138.84
2022-12-28T10:47:14.352Z,101132.53
2022-12-28T10:52:23.904Z,101123.23
2022-12-28T10:55:07.867Z,101126.06
2022-12-28T10:57:31.575Z,101117.75
2022-12-28T11:00:21.514Z,101118.48
2022-12-28T11:02:51.468Z,101118.48
2022-12-28T11:05:24.368Z,101124.72
2022-12-28T11:08:07.471Z,101123.52
2022-12-28T11:10:37.544Z,101119.47
2022-12-28T11:13:10.667Z,101115.77
2022-12-28T11:15:41.073Z,101108.23
2022-12-28T11:18:19.338Z,101113.87
2022-12-28T11:20:51.590Z,101104.05
2022-12-28T11:23:24.439Z,101093.61
2022-12-28T11:25:54.538Z,101094.75
2022-12-28T11:28:24.920Z,101090.91
2022-12-28T11:30:54.991Z,101086.37
2022-12-28T11:33:46.046Z,101082.83
2022-12-28T11:36:24.596Z,101104.73
2022-12-28T11:38:56.312Z,101078.80
2022-12-28T11:41:33.851Z,101079.24
2022-12-28T11:44:04.896Z,101076.61
2022-12-28T11:46:39.796Z,101071.41
2022-12-28T11:49:27.590Z,101066.45
2022-12-28T11:52:30.394Z,101061.55
2022-12-28T11:55:02.724Z,101056.55
2022-12-28T11:57:44.183Z,101041.66
2022-12-28T12:00:25.875Z,101041.66
2022-12-28T12:03:00.662Z,101035.23
2022-12-28T12:05:41.955Z,101058.17
2022-12-28T12:08:17.570Z,101044.89
2022-12-28T12:10:48.648Z,101050.26
2022-12-28T12:13:30.734Z,101040.61
2022-12-28T12:16:05.201Z,101038.16
2022-12-28T12:18:38.009Z,101040.61
2022-12-28T12:21:15.559Z,101036.02
2022-12-28T12:23:52.829Z,101038.53
2022-12-28T12:26:34.104Z,101026.92
2022-12-28T12:29:09.695Z,101010.86
2022-12-28T12:31:42.491Z,101031.00
2022-12-28T12:34:19.958Z,101023.36
2022-12-28T12:37:17.561Z,101018.31
2022-12-28T12:39:53.330Z,101011.17
2022-12-28T12:42:38.051Z,101006.33
2022-12-28T12:45:30.675Z,101001.52
2022-12-28T12:51:34.648Z,100994.08
2022-12-28T12:54:25.974Z,100994.72
2022-12-28T12:57:10.275Z,100990.16
2022-12-28T13:00:00.927Z,100981.67
2022-12-28T13:02:33.804Z,100972.53
2022-12-28T13:05:05.438Z,100955.75
2022-12-28T13:07:35.817Z,100953.13
2022-12-28T13:10:10.836Z,100946.92
2022-12-28T13:12:42.553Z,100946.92
2022-12-28T13:15:19.601Z,100942.12
2022-12-28T13:20:39.217Z,100928.42
2022-12-28T13:23:12.030Z,100920.64
2022-12-28T13:25:44.919Z,100915.88
2022-12-28T13:28:23.614Z,100914.28
2022-12-28T13:30:58.636Z,100905.44
2022-12-28T13:33:30.155Z,100895.47
2022-12-28T13:36:14.899Z,100891.41
2022-12-28T13:38:46.549Z,100884.02
2022-12-28T13:41:27.413Z,100864.25
2022-12-28T13:44:14.772Z,100874.10
2022-12-28T13:46:46.837Z,100872.95
2022-12-28T13:49:18.110Z,100863.04
2022-12-28T13:51:53.531Z,100855.30
2022-12-28T13:54:23.928Z,100854.20
2022-12-28T13:57:14.757Z,100851.63
2022-12-28T13:59:29.120Z,100848.64
2022-12-28T14:01:59.297Z,100844.34
2022-12-28T14:07:01.620Z,100839.56
2022-12-28T14:09:31.525Z,100842.13
2022-12-28T14:12:01.027Z,100829.36
2022-12-28T14:14:30.968Z,100818.99
2022-12-28T14:17:03.514Z,100816.87
2022-12-28T14:19:34.296Z,100800.94
2022-12-28T14:22:07.886Z,100798.97
2022-12-28T14:24:35.688Z,100798.66
2022-12-28T14:27:05.522Z,100786.64
2022-12-28T14:29:36.371Z,100787.50
2022-12-28T14:32:10.882Z,100777.95
2022-12-28T14:34:40.791Z,100769.03
2022-12-28T14:37:22.478Z,100772.11
2022-12-28T14:39:52.230Z,100758.28
2022-12-28T14:42:27.154Z,100758.28
2022-12-28T14:44:58.993Z,100763.61
2022-12-28T14:47:45.721Z,100762.08
2022-12-28T14:50:21.274Z,100758.97
2022-12-28T14:52:53.343Z,100756.17
2022-12-28T14:55:28.920Z,100754.88
2022-12-28T14:58:01.737Z,100754.88
2022-12-28T15:00:37.041Z,100740.83
2022-12-28T15:03:22.260Z,100742.13
2022-12-28T15:05:54.499Z,100732.77
2022-12-28T15:08:24.309Z,100724.04
2022-12-28T15:10:56.950Z,100725.86
2022-12-28T15:13:27.695Z,100719.59
2022-12-28T15:16:04.122Z,100721.52
2022-12-28T15:18:34.107Z,100703.09
2022-12-28T15:21:07.057Z,100703.09
2022-12-28T15:23:36.890Z,100703.03
2022-12-28T15:26:12.497Z,100701.73
2022-12-28T15:28:42.594Z,100689.20
2022-12-28T15:31:19.868Z,100690.72
2022-12-28T15:33:50.242Z,100681.23
2022-12-28T15:36:21.966Z,100680.08
2022-12-28T15:38:51.711Z,100672.66
2022-12-28T15:41:39.128Z,100668.48
2022-12-28T15:44:11.351Z,100668.48
2022-12-28T15:46:41.181Z,100650.78
2022-12-28T15:49:14.483Z,100650.78
2022-12-28T15:51:46.003Z,100649.45
2022-12-28T15:54:18.734Z,100642.33
2022-12-28T15:56:55.661Z,100621.13
2022-12-28T15:59:28.954Z,100621.13
2022-12-28T16:01:59.224Z,100631.91
2022-12-28T16:04:28.957Z,100627.98
2022-12-28T16:06:58.846Z,100628.70
2022-12-28T16:09:28.947Z,100628.70
2022-12-28T16:11:58.742Z,100620.44
2022-12-28T16:14:28.531Z,100623.63
2022-12-28T16:16:58.384Z,100627.30
2022-12-28T16:19:28.235Z,100610.55
2022-12-28T16:21:58.053Z,100608.22
2022-12-28T16:24:29.091Z,100605.92
2022-12-28T16:27:00.603Z,100606.52
2022-12-28T16:29:30.344Z,100596.57
2022-12-28T16:32:01.439Z,100597.77
2022-12-28T16:34:32.027Z,100592.59
2022-12-28T16:37:01.859Z,100592.45
2022-12-28T16:39:31.876Z,100587.77
2022-12-28T16:42:01.604Z,100587.77
2022-12-28T16:44:31.112Z,100578.63
2022-12-28T16:47:01.264Z,100564.47
2022-12-28T16:49:31.304Z,100551.27
2022-12-28T16:52:01.034Z,100550.45
2022-12-28T16:54:30.461Z,100551.15
2022-12-28T16:57:00.287Z,100551.09
2022-12-28T16:59:30.542Z,100537.40
2022-12-28T17:02:01.407Z,100537.40
2022-12-28T17:04:31.328Z,100533.97
2022-12-28T17:07:01.087Z,100529.55
2022-12-28T17:09:31.197Z,100520.25
2022-12-28T17:12:01.032Z,100519.70
2022-12-28T17:14:38.464Z,100514.99
2022-12-28T17:17:02.828Z,100504.22
2022-12-28T17:19:32.672Z,100511.15
2022-12-28T17:22:02.682Z,100489.03
2022-12-28T17:24:32.908Z,100502.06
2022-12-28T17:27:08.158Z,100493.19
2022-12-28T17:29:34.502Z,100492.86
2022-12-28T17:32:05.329Z,100490.05
2022-12-28T17:34:35.163Z,100479.06
2022-12-28T17:37:05.458Z,100473.96
2022-12-28T17:39:40.335Z,100482.70
2022-12-28T17:42:09.190Z,100467.25
2022-12-28T17:44:39.391Z,100452.59
2022-12-28T17:47:10.009Z,100452.41
2022-12-28T17:49:39.763Z,100442.13
2022-12-28T17:52:11.313Z,100441.52
2022-12-28T17:54:41.105Z,100443.66
2022-12-28T17:57:10.865Z,100443.16
2022-12-28T17:59:40.594Z,100443.16
2022-12-28T18:02:13.888Z,100433.72
2022-12-28T18:04:43.983Z,100422.23
2022-12-28T18:07:13.575Z,100414.59
2022-12-28T18:09:43.277Z,100407.05
2022-12-28T18:12:14.069Z,100402.55
2022-12-28T18:14:43.901Z,100403.25
2022-12-28T18:17:13.727Z,100395.64
2022-12-28T18:19:43.509Z,100396.17
2022-12-28T18:22:15.323Z,100388.69
2022-12-28T18:24:45.050Z,100387.89
2022-12-28T18:27:14.770Z,100394.27
2022-12-28T18:29:45.670Z,100382.44
2022-12-28T18:32:15.202Z,100381.52
2022-12-28T18:34:45.282Z,100382.86
2022-12-28T18:37:15.384Z,100375.83
2022-12-28T18:39:45.139Z,100384.34
2022-12-28T18:42:18.236Z,100376.17
2022-12-28T18:44:48.363Z,100363.81
2022-12-28T18:47:18.301Z,100368.73
2022-12-28T18:49:48.211Z,100361.50
2022-12-28T18:52:18.482Z,100374.47
2022-12-28T18:54:48.206Z,100365.17
2022-12-28T18:57:17.922Z,100368.41
2022-12-28T18:59:47.643Z,100370.07
2022-12-28T19:02:19.797Z,100366.22
2022-12-28T19:04:50.387Z,100361.40
2022-12-28T19:07:20.694Z,100361.40
2022-12-28T19:10:12.600Z,100369.23
2022-12-28T19:12:40.696Z,100356.88
2022-12-28T19:15:10.898Z,100355.45
2022-12-28T19:17:40.816Z,100350.94
2022-12-28T19:20:12.751Z,100343.08
2022-12-28T19:22:44.939Z,100343.07
2022-12-28T19:25:14.387Z,100330.00
2022-12-28T19:27:44.405Z,100324.87
2022-12-28T19:30:15.914Z,100338.05
2022-12-28T19:32:45.729Z,100325.30
2022-12-28T19:35:15.833Z,100334.91
2022-12-28T19:37:45.586Z,100326.43
2022-12-28T19:40:15.655Z,100318.39
2022-12-28T19:42:45.436Z,100331.89
2022-12-28T19:45:14.939Z,100323.30
2022-12-28T19:47:44.418Z,100315.33
2022-12-28T19:50:17.127Z,100326.55
2022-12-28T19:52:46.925Z,100323.28
2022-12-28T19:55:16.649Z,100321.41
2022-12-28T19:57:46.401Z,100319.09
2022-12-28T20:00:16.824Z,100319.09
2022-12-28T20:02:46.751Z,100317.44
2022-12-28T20:05:16.275Z,100318.80
2022-12-28T20:07:46.051Z,100304.03
2022-12-28T20:10:15.533Z,100307.59
2022-12-28T20:12:45.593Z,100301.84
2022-12-28T20:15:15.386Z,100301.28
2022-12-28T20:17:47.270Z,100296.36
2022-12-28T20:20:19.553Z,100291.44
2022-12-28T20:22:48.828Z,100297.28
2022-12-28T20:25:18.554Z,100299.48
2022-12-28T20:27:48.582Z,100305.01
2022-12-28T20:30:18.115Z,100312.96
2022-12-28T20:32:48.149Z,100292.23
2022-12-28T20:35:17.697Z,100289.70
2022-12-28T20:37:47.735Z,100296.14
2022-12-28T20:40:17.743Z,100286.31
2022-12-28T20:43:05.173Z,100297.98
2022-12-28T20:45:35.632Z,100310.19
2022-12-28T20:48:05.591Z,100284.42
2022-12-28T20:50:35.392Z,100292.20
2022-12-28T20:53:05.214Z,100291.12
2022-12-28T20:55:34.963Z,100294.78
2022-12-28T20:58:04.988Z,100301.47
2022-12-28T21:00:34.903Z,100288.52
2022-12-28T21:03:04.648Z,100292.42
2022-12-28T21:05:34.724Z,100283.07
2022-12-28T21:08:04.663Z,100282.02
2022-12-28T21:10:34.213Z,100303.63
2022-12-28T21:13:03.710Z,100285.84
2022-12-28T21:15:33.795Z,100278.28
2022-12-28T21:18:03.973Z,100267.47
2022-12-28T21:20:38.754Z,100272.55
2022-12-28T21:23:05.145Z,100271.00
2022-12-28T21:25:35.072Z,100265.32
2022-12-28T21:28:05.172Z,100268.11
2022-12-28T21:30:35.455Z,100257.45
2022-12-28T21:33:05.745Z,100252.67
2022-12-28T21:35:35.480Z,100241.80
2022-12-28T21:38:06.288Z,100241.80
2022-12-28T21:40:36.049Z,100246.64
2022-12-28T21:43:05.806Z,100241.88
2022-12-28T21:45:35.661Z,100241.88
2022-12-28T21:48:05.960Z,100245.44
2022-12-28T21:50:36.013Z,100237.37
2022-12-28T21:53:05.841Z,100234.00
2022-12-28T21:55:45.394Z,100237.94
2022-12-28T21:58:16.501Z,100224.16
2022-12-28T22:01:04.063Z,100233.05
2022-12-28T22:03:51.453Z,100218.91
2022-12-28T22:06:21.201Z,100224.11
2022-12-28T22:09:08.767Z,100228.35
2022-12-28T22:11:56.162Z,100230.25
2022-12-28T22:14:25.882Z,100218.34
2022-12-28T22:16:55.831Z,100225.20
2022-12-28T22:19:25.786Z,100219.89
2022-12-28T22:21:55.596Z,100211.00
2022-12-28T22:24:25.436Z,100215.20
2022-12-28T22:26:55.153Z,100213.00
2022-12-28T22:29:25.458Z,100206.70
2022-12-28T22:31:55.271Z,100206.33
2022-12-28T22:34:25.316Z,100201.25
2022-12-28T22:36:55.064Z,100196.06
2022-12-28T22:39:25.290Z,100201.68
2022-12-28T22:41:55.007Z,100195.67
2022-12-28T22:44:25.103Z,100186.88
2022-12-28T22:46:55.093Z,100187.28
2022-12-28T22:49:25.145Z,100190.74
2022-12-28T22:51:54.956Z,100188.41
2022-12-28T22:54:24.714Z,100189.24
2022-12-28T22:56:54.480Z,100186.72
2022-12-28T22:59:24.283Z,100185.75
2022-12-28T23:01:56.656Z,100178.08
2022-12-28T23:04:26.419Z,100185.08
2022-12-28T23:07:01.663Z,100183.46
2022-12-28T23:09:27.984Z,100184.77
2022-12-28T23:11:58.043Z,100172.27
2022-12-28T23:14:45.487Z,100167.13
2022-12-28T23:17:16.864Z,100169.62
2022-12-28T23:20:05.022Z,100164.78
2022-12-28T23:22:52.586Z,100177.27
2022-12-28T23:25:42.049Z,100162.37
2022-12-28T23:28:15.570Z,100164.39
2022-12-28T23:30:48.486Z,100160.83
2022-12-28T23:33:20.015Z,100166.00
2022-12-28T23:35:49.769Z,100156.27
2022-12-28T23:38:19.696Z,100138.31
2022-12-28T23:40:51.068Z,100143.85
2022-12-28T23:43:20.528Z,100134.23
2022-12-28T23:45:50.725Z,100133.16
2022-12-28T23:48:20.543Z,100128.08
2022-12-28T23:50:50.266Z,100128.44
2022-12-28T23:53:22.980Z,100123.08
2022-12-28T23:55:52.725Z,100118.16
2022-12-28T23:58:22.154Z,100110.49
